Time;durP1;ratioP1;P1;durP2;ratioP2;P2;SDS_P1;SDS_P2;PMS_P1;PMS_P2;Temp;Humidity;BMP_temperature;BMP_pressure;BME280_temperature;BME280_humidity;BME280_pressure;Samples;Min_cycle;Max_cycle;Signal;HPM_P1;HPM_P2
2023/02/13 00:00:46;;;;;;;;;;;;;;;;;;4983374;28;6213;-59
2023/02/13 00:03:11;;;;;;;;;;;;;;;;;;4999797;28;5729;-59
2023/02/13 00:05:36;;;;;;;;;;;;;;;;;;5000208;28;4584;-59
2023/02/13 00:08:02;;;;;;;;;;;;;;;;;;5000538;28;3664;-59
2023/02/13 00:10:27;;;;;;;;;;;;;;;;;;5005235;28;5120;-58
2023/02/13 00:12:52;;;;;;;;;;;;;;;;;;5003308;28;4585;-59
2023/02/13 00:15:18;;;;;;;;;;;;;;;;;;5000517;28;5177;-60
2023/02/13 00:17:43;;;;;;;;;;;;;;;;;;5000149;28;5319;-59
2023/02/13 00:20:09;;;;;;;;;;;;;;;;;;4999125;28;3497;-57
2023/02/13 00:22:34;;;;;;;;;;;;;;;;;;5002077;28;5541;-59
2023/02/13 00:25:00;;;;;;;;;;;;;;;;;;5008157;28;4619;-58
2023/02/13 00:27:25;;;;;;;;;;;;;;;;;;5003117;28;5186;-59
2023/02/13 00:29:50;;;;;;;;;;;;;;;;;;5005440;28;4840;-59
2023/02/13 00:32:15;;;;;;;;;;;;;;;;;;5003080;28;3362;-59
2023/02/13 00:34:42;;;;;;;;;;;;;;;;;;5007229;28;5130;-59
2023/02/13 00:37:08;;;;;;;;;;;;;;;;;;5000206;28;4539;-59
2023/02/13 00:39:33;;;;;;;;;;;;;;;;;;5006958;28;5110;-59
2023/02/13 00:41:58;;;;;;;;;;;;;;;;;;5003030;28;5112;-60
2023/02/13 00:44:23;;;;;;;;;;;;;;;;;;5006350;28;5358;-59
2023/02/13 00:46:49;;;;;;;;;;;;;;;;;;4992083;28;3450;-60
2023/02/13 00:49:14;;;;;;;;;;;;;;;;;;5003189;28;5185;-60
2023/02/13 00:51:39;;;;;;;;;;;;;;;;;;5002679;28;4509;-60
2023/02/13 00:54:04;;;;;;;;;;;;;;;;;;5007295;28;5136;-59
2023/02/13 00:56:30;;;;;;;;;;;;;;;;;;5009395;28;5065;-59
2023/02/13 00:58:55;;;;;;;;;;;;;;;;;;5011557;28;4683;-59
2023/02/13 01:01:20;;;;;;;;;;;;;;;;;;5002091;28;5144;-59
2023/02/13 01:03:45;;;;;;;;;;;;;;;;;;5003839;28;4908;-60
2023/02/13 01:06:11;;;;;;;;;;;;;;;;;;5010517;28;5481;-59
2023/02/13 01:08:39;;;;;;;;;;;;;;;;;;5012528;28;5120;-59
2023/02/13 01:11:05;;;;;;;;;;;;;;;;;;5006350;28;3286;-60
2023/02/13 01:13:30;;;;;;;;;;;;;;;;;;5003792;28;5087;-59
2023/02/13 01:15:55;;;;;;;;;;;;;;;;;;5008183;28;4515;-60
2023/02/13 01:18:20;;;;;;;;;;;;;;;;;;5006097;28;5073;-60
2023/02/13 01:20:54;;;;;;;;;;;;;;;;;;5003555;28;4918;-60
2023/02/13 01:23:19;;;;;;;;;;;;;;;;;;5003517;28;3565;-59
2023/02/13 01:25:44;;;;;;;;;;;;;;;;;;5005915;28;4986;-60
2023/02/13 01:28:10;;;;;;;;;;;;;;;;;;4984355;28;4643;-59
2023/02/13 01:30:35;;;;;;;;;;;;;;;;;;5007506;28;5243;-59
2023/02/13 01:33:00;;;;;;;;;;;;;;;;;;5001827;28;4524;-58
2023/02/13 01:35:25;;;;;;;;;;;;;;;;;;5004172;28;5150;-58
2023/02/13 01:37:51;;;;;;;;;;;;;;;;;;5008814;28;3194;-59
2023/02/13 01:40:16;;;;;;;;;;;;;;;;;;5008723;28;4927;-59
2023/02/13 01:42:41;;;;;;;;;;;;;;;;;;5007267;28;5052;-59
2023/02/13 01:45:23;;;;;;;;;;;;;;;;;;5013939;28;4529;-58
2023/02/13 01:47:49;;;;;;;;;;;;;;;;;;5003373;28;5207;-59
2023/02/13 01:50:16;;;;;;;;;;;;;;;;;;4998528;28;3285;-59
2023/02/13 01:52:52;;;;;;;;;;;;;;;;;;5002717;28;5031;-59
2023/02/13 01:55:17;;;;;;;;;;;;;;;;;;4989527;28;4651;-59
2023/02/13 01:57:43;;;;;;;;;;;;;;;;;;5002367;28;5025;-59
2023/02/13 02:00:10;;;;;;;;;;;;;;;;;;4990370;28;5109;-59
2023/02/13 02:02:36;;;;;;;;;;;;;;;;;;5004602;28;4726;-59
2023/02/13 02:05:01;;;;;;;;;;;;;;;;;;5006048;28;3318;-58
2023/02/13 02:07:27;;;;;;;;;;;;;;;;;;4987872;28;4762;-58
2023/02/13 02:09:52;;;;;;;;;;;;;;;;;;4997733;28;5323;-59
2023/02/13 02:12:40;;;;;;;;;;;;;;;;;;5020954;28;5186;-59
2023/02/13 02:15:05;;;;;;;;;;;;;;;;;;4987339;28;5133;-59
2023/02/13 02:17:31;;;;;;;;;;;;;;;;;;4998021;28;4592;-58
2023/02/13 02:20:03;;;;;;;;;;;;;;;;;;5004421;28;3252;-58
2023/02/13 02:22:47;;;;;;;;;;;;;;;;;;4997869;28;4651;-58
2023/02/13 02:25:15;;;;;;;;;;;;;;;;;;5001845;28;5519;-59
2023/02/13 02:27:43;;;;;;;;;;;;;;;;;;5000975;28;4994;-59
2023/02/13 02:30:15;;;;;;;;;;;;;;;;;;5002622;28;4468;-59
2023/02/13 02:32:59;;;;;;;;;;;;;;;;;;5003465;28;5189;-59
2023/02/13 02:35:43;;;;;;;;;;;;;;;;;;5004069;28;4513;-58
2023/02/13 02:38:17;;;;;;;;;;;;;;;;;;5001939;28;3289;-59
2023/02/13 02:41:01;;;;;;;;;;;;;;;;;;4992595;28;5052;-59
2023/02/13 02:43:40;;;;;;;;;;;;;;;;;;5000104;28;4472;-59
2023/02/13 02:46:25;;;;;;;;;;;;;;;;;;4988899;28;4935;-60
2023/02/13 02:51:50;;;;;;;;;;;;;;;;;;4998722;28;4714;-59
2023/02/13 02:57:06;;;;;;;;;;;;;;;;;;4999229;28;5085;-59
2023/02/13 03:07:43;;;;;;;;;;;;;;;;;;4986890;28;4657;-59
2023/02/13 03:24:03;;;;;;;;;;;;;;;;;;5004120;28;4489;-61
2023/02/13 03:26:49;;;;;;;;;;;;;;;;;;5001422;28;6135;-60
2023/02/13 03:32:12;;;;;;;;;;;;;;;;;;5003905;28;4870;-60
2023/02/13 03:37:53;;;;;;;;;;;;;;;;;;4962440;28;5086;-60
2023/02/13 03:40:28;;;;;;;;;;;;;;;;;;4979134;28;5233;-60
2023/02/13 03:42:53;;;;;;;;;;;;;;;;;;4985784;28;4774;-59
2023/02/13 03:50:04;;;;;;;;;;;;;;;;;;5005497;28;5456;-59
2023/02/13 03:50:53;;;;;;;;;;;;;;;;;;4993338;28;5118;-60
2023/02/13 03:53:18;;;;;;;;;;;;;;;;;;4985754;28;3456;-60
2023/02/13 04:01:17;;;;;;;;;;;;;;;;;;4994787;28;5138;-59
2023/02/13 04:03:46;;;;;;;;;;;;;;;;;;4990375;28;5178;-58
2023/02/13 04:06:12;;;;;;;;;;;;;;;;;;5007933;28;5085;-60
2023/02/13 04:08:37;;;;;;;;;;;;;;;;;;5006891;28;5188;-60
2023/02/13 04:11:06;;;;;;;;;;;;;;;;;;5007137;28;3275;-58
2023/02/13 04:13:35;;;;;;;;;;;;;;;;;;5005245;28;5087;-58
2023/02/13 04:16:02;;;;;;;;;;;;;;;;;;5001852;28;5061;-59
2023/02/13 04:18:28;;;;;;;;;;;;;;;;;;5000796;28;4494;-60
2023/02/13 04:20:53;;;;;;;;;;;;;;;;;;5000249;28;4938;-59
2023/02/13 04:23:18;;;;;;;;;;;;;;;;;;5001239;28;3502;-59
2023/02/13 04:25:44;;;;;;;;;;;;;;;;;;5009461;28;5090;-58
2023/02/13 04:28:10;;;;;;;;;;;;;;;;;;5002507;28;4775;-59
2023/02/13 04:30:35;;;;;;;;;;;;;;;;;;5006407;28;5162;-59
2023/02/13 04:33:00;;;;;;;;;;;;;;;;;;5004518;28;5255;-59
2023/02/13 04:35:26;;;;;;;;;;;;;;;;;;5009314;28;5196;-59
2023/02/13 04:37:51;;;;;;;;;;;;;;;;;;5010500;28;3324;-59
2023/02/13 04:40:16;;;;;;;;;;;;;;;;;;5000899;28;5100;-60
2023/02/13 04:42:41;;;;;;;;;;;;;;;;;;5006542;28;4663;-60
2023/02/13 04:45:07;;;;;;;;;;;;;;;;;;5001536;28;4572;-59
2023/02/13 04:47:32;;;;;;;;;;;;;;;;;;5006638;28;5043;-60
2023/02/13 04:49:57;;;;;;;;;;;;;;;;;;5000646;28;3453;-59
2023/02/13 04:52:23;;;;;;;;;;;;;;;;;;5005376;28;5127;-60
2023/02/13 04:54:48;;;;;;;;;;;;;;;;;;5000064;28;4796;-59
2023/02/13 04:57:14;;;;;;;;;;;;;;;;;;5011366;28;5057;-60
2023/02/13 04:59:39;;;;;;;;;;;;;;;;;;5007737;28;5052;-59
2023/02/13 05:02:04;;;;;;;;;;;;;;;;;;5004355;28;3340;-60
2023/02/13 05:04:30;;;;;;;;;;;;;;;;;;5007955;28;4577;-59
2023/02/13 05:06:55;;;;;;;;;;;;;;;;;;5005664;28;5166;-60
2023/02/13 05:09:20;;;;;;;;;;;;;;;;;;5005594;28;4524;-60
2023/02/13 05:11:45;;;;;;;;;;;;;;;;;;5006393;28;5252;-60
2023/02/13 05:14:11;;;;;;;;;;;;;;;;;;5005424;28;3281;-60
2023/02/13 05:16:36;;;;;;;;;;;;;;;;;;5003686;28;5020;-58
2023/02/13 05:19:02;;;;;;;;;;;;;;;;;;5007258;28;4628;-58
2023/02/13 05:24:11;;;;;;;;;;;;;;;;;;5007392;28;4959;-59
2023/02/13 05:26:36;;;;;;;;;;;;;;;;;;5006476;28;5083;-59
2023/02/13 05:29:21;;;;;;;;;;;;;;;;;;5008887;28;3397;-60
2023/02/13 05:31:53;;;;;;;;;;;;;;;;;;5001618;28;5046;-59
2023/02/13 05:34:21;;;;;;;;;;;;;;;;;;5007083;28;5009;-59
2023/02/13 05:36:47;;;;;;;;;;;;;;;;;;5007870;28;5165;-60
2023/02/13 05:39:12;;;;;;;;;;;;;;;;;;5005217;28;5120;-59
2023/02/13 05:41:37;;;;;;;;;;;;;;;;;;5006718;28;5122;-60
2023/02/13 05:44:02;;;;;;;;;;;;;;;;;;5008944;28;1171;-60
2023/02/13 05:46:28;;;;;;;;;;;;;;;;;;5008526;28;4947;-59
2023/02/13 05:48:53;;;;;;;;;;;;;;;;;;5006046;28;4989;-59
2023/02/13 05:51:19;;;;;;;;;;;;;;;;;;4972382;28;4638;-60
2023/02/13 05:53:44;;;;;;;;;;;;;;;;;;4985428;28;5089;-60
2023/02/13 05:56:09;;;;;;;;;;;;;;;;;;5001038;28;3704;-60
2023/02/13 05:58:34;;;;;;;;;;;;;;;;;;5025514;28;5164;-60
2023/02/13 06:01:00;;;;;;;;;;;;;;;;;;5002403;28;5016;-60
2023/02/13 06:03:25;;;;;;;;;;;;;;;;;;5010232;28;4954;-60
2023/02/13 06:05:51;;;;;;;;;;;;;;;;;;5002318;28;5020;-60
2023/02/13 06:08:16;;;;;;;;;;;;;;;;;;5004257;28;3287;-59
2023/02/13 06:10:42;;;;;;;;;;;;;;;;;;5004557;28;5050;-60
2023/02/13 06:13:07;;;;;;;;;;;;;;;;;;5009818;28;5103;-59
2023/02/13 06:15:32;;;;;;;;;;;;;;;;;;5001869;28;5279;-59
2023/02/13 06:17:57;;;;;;;;;;;;;;;;;;5003927;28;5098;-60
2023/02/13 06:20:23;;;;;;;;;;;;;;;;;;5005537;28;5079;-59
2023/02/13 06:22:49;;;;;;;;;;;;;;;;;;5002121;28;3493;-60
2023/02/13 06:25:14;;;;;;;;;;;;;;;;;;4998804;28;5024;-60
2023/02/13 06:27:39;;;;;;;;;;;;;;;;;;5002227;28;4669;-60
2023/02/13 06:30:05;;;;;;;;;;;;;;;;;;5003621;28;4892;-60
2023/02/13 06:32:30;;;;;;;;;;;;;;;;;;5005462;28;5119;-60
2023/02/13 06:34:55;;;;;;;;;;;;;;;;;;5006476;28;3352;-60
2023/02/13 06:37:21;;;;;;;;;;;;;;;;;;5003863;28;5065;-60
2023/02/13 06:39:46;;;;;;;;;;;;;;;;;;5001276;28;5044;-60
2023/02/13 06:42:11;;;;;;;;;;;;;;;;;;5003263;28;5183;-60
2023/02/13 06:44:36;;;;;;;;;;;;;;;;;;5002007;28;5483;-58
2023/02/13 06:47:02;;;;;;;;;;;;;;;;;;5006862;28;3242;-60
2023/02/13 06:49:27;;;;;;;;;;;;;;;;;;4993898;28;5151;-58
2023/02/13 06:51:52;;;;;;;;;;;;;;;;;;4999698;28;5055;-59
2023/02/13 06:54:17;;;;;;;;;;;;;;;;;;5000158;28;5086;-60
2023/02/13 06:56:44;;;;;;;;;;;;;;;;;;4999227;28;5134;-59
2023/02/13 06:59:09;;;;;;;;;;;;;;;;;;5008653;28;4545;-59
2023/02/13 07:01:34;;;;;;;;;;;;;;;;;;5004513;28;5042;-59
2023/02/13 07:04:00;;;;;;;;;;;;;;;;;;5005381;28;4869;-59
2023/02/13 07:06:25;;;;;;;;;;;;;;;;;;5002433;28;5187;-60
2023/02/13 07:08:54;;;;;;;;;;;;;;;;;;5003960;28;4682;-60
2023/02/13 07:11:19;;;;;;;;;;;;;;;;;;5004373;28;1456;-59
2023/02/13 07:13:44;;;;;;;;;;;;;;;;;;5007272;28;5102;-59
2023/02/13 07:16:10;;;;;;;;;;;;;;;;;;5004862;28;5039;-60
2023/02/13 07:18:35;;;;;;;;;;;;;;;;;;5003929;28;5317;-59
2023/02/13 07:21:00;;;;;;;;;;;;;;;;;;5005373;28;5021;-60
2023/02/13 07:23:25;;;;;;;;;;;;;;;;;;5004816;28;4715;-59
2023/02/13 07:25:51;;;;;;;;;;;;;;;;;;5001954;28;3591;-59
2023/02/13 07:28:16;;;;;;;;;;;;;;;;;;5000528;28;5130;-59
2023/02/13 07:30:41;;;;;;;;;;;;;;;;;;5001951;28;5109;-59
2023/02/13 07:33:06;;;;;;;;;;;;;;;;;;4975697;28;4578;-58
2023/02/13 07:35:32;;;;;;;;;;;;;;;;;;4974342;28;4774;-58
2023/02/13 07:37:59;;;;;;;;;;;;;;;;;;4976898;28;3454;-59
2023/02/13 07:40:24;;;;;;;;;;;;;;;;;;4979512;28;5488;-60
2023/02/13 07:42:49;;;;;;;;;;;;;;;;;;4974011;28;4977;-58
2023/02/13 07:45:15;;;;;;;;;;;;;;;;;;4974535;28;5135;-59
2023/02/13 07:47:40;;;;;;;;;;;;;;;;;;4975027;28;5066;-59
2023/02/13 07:50:06;;;;;;;;;;;;;;;;;;4991154;28;3593;-59
2023/02/13 07:52:32;;;;;;;;;;;;;;;;;;4999466;28;4679;-59
2023/02/13 07:54:57;;;;;;;;;;;;;;;;;;5001077;28;5295;-64
2023/02/13 07:57:22;;;;;;;;;;;;;;;;;;4997081;28;5059;-58
2023/02/13 07:59:48;;;;;;;;;;;;;;;;;;4986070;28;4846;-58
2023/02/13 08:02:13;;;;;;;;;;;;;;;;;;4988853;28;3520;-59
2023/02/13 08:04:39;;;;;;;;;;;;;;;;;;4987207;28;5270;-58
2023/02/13 08:07:04;;;;;;;;;;;;;;;;;;4987406;28;4678;-57
2023/02/13 08:12:14;;;;;;;;;;;;;;;;;;4990404;28;5228;-57
2023/02/13 08:14:39;;;;;;;;;;;;;;;;;;4981463;28;5761;-60
2023/02/13 08:17:04;;;;;;;;;;;;;;;;;;4990524;28;3388;-58
2023/02/13 08:19:30;;;;;;;;;;;;;;;;;;5000787;28;4850;-57
2023/02/13 08:21:55;;;;;;;;;;;;;;;;;;5004654;28;4612;-57
2023/02/13 08:24:20;;;;;;;;;;;;;;;;;;4997059;28;5560;-58
2023/02/13 08:26:45;;;;;;;;;;;;;;;;;;4996339;28;4518;-62
2023/02/13 08:29:11;;;;;;;;;;;;;;;;;;5001487;28;3552;-59
2023/02/13 08:31:36;;;;;;;;;;;;;;;;;;5000340;28;4946;-58
2023/02/13 08:34:01;;;;;;;;;;;;;;;;;;5005963;28;4732;-57
2023/02/13 08:36:27;;;;;;;;;;;;;;;;;;5003015;28;5006;-58
2023/02/13 08:38:52;;;;;;;;;;;;;;;;;;5016810;28;5227;-57
2023/02/13 08:41:19;;;;;;;;;;;;;;;;;;5003403;28;3504;-65
2023/02/13 08:43:45;;;;;;;;;;;;;;;;;;5009757;28;4449;-58
2023/02/13 08:46:10;;;;;;;;;;;;;;;;;;5003557;28;5133;-57
2023/02/13 08:48:35;;;;;;;;;;;;;;;;;;4989116;28;5120;-57
2023/02/13 08:51:04;;;;;;;;;;;;;;;;;;5002650;28;5201;-57
2023/02/13 08:53:29;;;;;;;;;;;;;;;;;;5005405;28;5076;-56
2023/02/13 08:55:55;;;;;;;;;;;;;;;;;;5003841;28;3177;-57
2023/02/13 08:58:20;;;;;;;;;;;;;;;;;;5000814;28;5176;-58
2023/02/13 09:00:46;;;;;;;;;;;;;;;;;;5008291;28;5111;-56
2023/02/13 09:03:11;;;;;;;;;;;;;;;;;;5009069;28;5129;-56
2023/02/13 09:05:36;;;;;;;;;;;;;;;;;;5000426;28;5104;-57
2023/02/13 09:08:02;;;;;;;;;;;;;;;;;;4989191;28;3523;-65
2023/02/13 09:10:28;;;;;;;;;;;;;;;;;;5004053;28;4947;-59
2023/02/13 09:12:53;;;;;;;;;;;;;;;;;;4997264;28;4509;-60
2023/02/13 09:15:18;;;;;;;;;;;;;;;;;;4992896;28;5073;-59
2023/02/13 09:17:44;;;;;;;;;;;;;;;;;;4997970;28;5225;-63
2023/02/13 09:20:11;;;;;;;;;;;;;;;;;;4986052;28;3725;-59
2023/02/13 09:22:36;;;;;;;;;;;;;;;;;;5001760;28;5616;-56
2023/02/13 09:25:03;;;;;;;;;;;;;;;;;;5005002;28;5115;-59
2023/02/13 09:27:28;;;;;;;;;;;;;;;;;;4999521;28;4696;-59
2023/02/13 09:29:54;;;;;;;;;;;;;;;;;;5008080;28;4718;-57
2023/02/13 09:32:19;;;;;;;;;;;;;;;;;;4988796;28;4008;-60
2023/02/13 09:34:47;;;;;;;;;;;;;;;;;;5001731;28;4452;-59
2023/02/13 09:37:13;;;;;;;;;;;;;;;;;;4983685;28;5198;-63
2023/02/13 09:39:38;;;;;;;;;;;;;;;;;;5003292;28;4578;-63
2023/02/13 09:42:05;;;;;;;;;;;;;;;;;;4998070;28;4889;-61
2023/02/13 09:44:34;;;;;;;;;;;;;;;;;;4985466;28;6303;-60
2023/02/13 09:47:00;;;;;;;;;;;;;;;;;;4976674;28;3657;-56
2023/02/13 09:49:26;;;;;;;;;;;;;;;;;;4999384;28;4980;-55
2023/02/13 09:51:53;;;;;;;;;;;;;;;;;;4994902;28;5117;-60
2023/02/13 09:54:18;;;;;;;;;;;;;;;;;;4998820;28;4590;-65
2023/02/13 09:56:48;;;;;;;;;;;;;;;;;;5004083;28;4601;-64
2023/02/13 09:59:32;;;;;;;;;;;;;;;;;;4996171;28;4625;-65
2023/02/13 10:01:59;;;;;;;;;;;;;;;;;;4998178;28;4473;-63
2023/02/13 10:04:25;;;;;;;;;;;;;;;;;;4986489;28;4515;-65
2023/02/13 10:06:57;;;;;;;;;;;;;;;;;;4993808;28;5053;-65
2023/02/13 10:09:28;;;;;;;;;;;;;;;;;;5010835;28;4492;-64
2023/02/13 10:11:54;;;;;;;;;;;;;;;;;;5001443;28;4690;-68
2023/02/13 10:14:22;;;;;;;;;;;;;;;;;;5000692;28;3617;-66
2023/02/13 10:16:59;;;;;;;;;;;;;;;;;;4997689;28;5258;-67
2023/02/13 10:19:30;;;;;;;;;;;;;;;;;;5010446;28;5027;-67
2023/02/13 10:21:59;;;;;;;;;;;;;;;;;;5007911;28;5520;-67
2023/02/13 10:24:27;;;;;;;;;;;;;;;;;;5002437;28;5147;-61
2023/02/13 10:26:52;;;;;;;;;;;;;;;;;;5005504;28;5109;-65
2023/02/13 10:32:06;;;;;;;;;;;;;;;;;;5001840;28;4584;-60
2023/02/13 10:34:33;;;;;;;;;;;;;;;;;;5002120;28;5148;-59
2023/02/13 10:36:58;;;;;;;;;;;;;;;;;;5004945;28;5059;-59
2023/02/13 10:39:30;;;;;;;;;;;;;;;;;;4988167;28;4913;-58
2023/02/13 10:41:58;;;;;;;;;;;;;;;;;;5003059;28;4516;-58
2023/02/13 10:44:29;;;;;;;;;;;;;;;;;;5004312;28;4717;-57
2023/02/13 10:47:02;;;;;;;;;;;;;;;;;;5000274;28;3656;-59
2023/02/13 10:49:28;;;;;;;;;;;;;;;;;;5000188;28;5101;-60
2023/02/13 10:52:03;;;;;;;;;;;;;;;;;;5006621;28;4937;-60
2023/02/13 10:54:28;;;;;;;;;;;;;;;;;;5000525;28;4471;-58
2023/02/13 10:57:03;;;;;;;;;;;;;;;;;;5008818;28;5047;-59
2023/02/13 10:59:35;;;;;;;;;;;;;;;;;;5003628;28;5495;-59
2023/02/13 11:02:12;;;;;;;;;;;;;;;;;;4995185;28;3545;-58
2023/02/13 11:04:39;;;;;;;;;;;;;;;;;;4998520;28;5030;-58
2023/02/13 11:07:05;;;;;;;;;;;;;;;;;;5003329;28;5097;-59
2023/02/13 11:09:32;;;;;;;;;;;;;;;;;;5000975;28;5053;-59
2023/02/13 11:11:58;;;;;;;;;;;;;;;;;;4991887;28;5241;-55
2023/02/13 11:14:24;;;;;;;;;;;;;;;;;;5001479;28;4532;-56
2023/02/13 11:17:02;;;;;;;;;;;;;;;;;;4994617;28;3701;-57
2023/02/13 11:19:28;;;;;;;;;;;;;;;;;;4991921;28;4490;-57
2023/02/13 11:22:22;;;;;;;;;;;;;;;;;;4996096;28;4580;-56
2023/02/13 11:24:59;;;;;;;;;;;;;;;;;;4982391;28;5077;-56
2023/02/13 11:27:27;;;;;;;;;;;;;;;;;;5007947;28;4961;-57
2023/02/13 11:30:15;;;;;;;;;;;;;;;;;;5002303;28;5080;-56
2023/02/13 11:32:41;;;;;;;;;;;;;;;;;;4993025;28;4969;-56
2023/02/13 11:35:26;;;;;;;;;;;;;;;;;;5000567;28;3900;-58
2023/02/13 11:38:04;;;;;;;;;;;;;;;;;;5007796;28;5156;-58
2023/02/13 11:40:30;;;;;;;;;;;;;;;;;;4993162;28;4454;-57
2023/02/13 11:42:55;;;;;;;;;;;;;;;;;;4989038;28;5056;-58
2023/02/13 11:45:21;;;;;;;;;;;;;;;;;;5004646;28;5063;-60
2023/02/13 11:47:47;;;;;;;;;;;;;;;;;;4981904;28;5101;-55
2023/02/13 11:50:19;;;;;;;;;;;;;;;;;;5000956;28;1371;-58
2023/02/13 11:52:44;;;;;;;;;;;;;;;;;;5001898;28;5030;-58
2023/02/13 11:55:29;;;;;;;;;;;;;;;;;;4986339;28;5230;-57
2023/02/13 11:58:01;;;;;;;;;;;;;;;;;;5000968;28;5137;-57
2023/02/13 12:00:27;;;;;;;;;;;;;;;;;;4999979;28;5111;-57
2023/02/13 12:02:52;;;;;;;;;;;;;;;;;;5006577;28;5067;-58
2023/02/13 12:05:19;;;;;;;;;;;;;;;;;;5003019;28;1106;-58
2023/02/13 12:07:44;;;;;;;;;;;;;;;;;;5006001;28;5052;-59
2023/02/13 12:10:21;;;;;;;;;;;;;;;;;;5001946;28;4663;-58
2023/02/13 12:12:57;;;;;;;;;;;;;;;;;;5003222;28;5099;-58
2023/02/13 12:15:29;;;;;;;;;;;;;;;;;;4998598;28;4819;-58
2023/02/13 12:18:04;;;;;;;;;;;;;;;;;;4997937;28;5575;-58
2023/02/13 12:20:32;;;;;;;;;;;;;;;;;;5002694;28;5436;-58
2023/02/13 12:23:04;;;;;;;;;;;;;;;;;;5004665;28;3633;-57
2023/02/13 12:25:34;;;;;;;;;;;;;;;;;;4995140;28;4543;-57
2023/02/13 12:28:05;;;;;;;;;;;;;;;;;;5012786;28;5011;-57
2023/02/13 12:30:46;;;;;;;;;;;;;;;;;;5005581;28;5130;-55
2023/02/13 12:33:24;;;;;;;;;;;;;;;;;;5000146;28;5116;-58
2023/02/13 12:35:52;;;;;;;;;;;;;;;;;;5019003;28;5442;-59
2023/02/13 12:38:17;;;;;;;;;;;;;;;;;;4988243;28;3580;-57
2023/02/13 12:40:58;;;;;;;;;;;;;;;;;;5003049;28;4425;-56
2023/02/13 12:43:28;;;;;;;;;;;;;;;;;;5003163;28;4947;-57
2023/02/13 12:45:59;;;;;;;;;;;;;;;;;;5014773;28;5108;-57
2023/02/13 12:48:30;;;;;;;;;;;;;;;;;;5006956;28;4507;-57
2023/02/13 12:50:58;;;;;;;;;;;;;;;;;;5004517;28;5272;-57
2023/02/13 12:53:26;;;;;;;;;;;;;;;;;;4981201;28;5086;-62
2023/02/13 12:55:59;;;;;;;;;;;;;;;;;;5002517;28;3446;-57
2023/02/13 12:58:24;;;;;;;;;;;;;;;;;;4995923;28;5489;-57
2023/02/13 13:00:56;;;;;;;;;;;;;;;;;;5000834;28;4919;-57
2023/02/13 13:03:30;;;;;;;;;;;;;;;;;;4996075;28;5725;-57
2023/02/13 13:06:01;;;;;;;;;;;;;;;;;;5010641;28;4586;-57
2023/02/13 13:08:26;;;;;;;;;;;;;;;;;;5002269;28;4648;-57
2023/02/13 13:10:52;;;;;;;;;;;;;;;;;;5001399;28;3612;-58
2023/02/13 13:13:29;;;;;;;;;;;;;;;;;;5002007;28;4967;-57
2023/02/13 13:15:54;;;;;;;;;;;;;;;;;;5012234;28;5036;-56
2023/02/13 13:18:25;;;;;;;;;;;;;;;;;;4996845;28;4630;-56
2023/02/13 13:21:09;;;;;;;;;;;;;;;;;;5007024;28;5279;-56
2023/02/13 13:23:53;;;;;;;;;;;;;;;;;;4998278;28;5023;-57
2023/02/13 13:26:20;;;;;;;;;;;;;;;;;;5007592;28;2252;-57
2023/02/13 13:28:46;;;;;;;;;;;;;;;;;;4997227;28;5118;-59
2023/02/13 13:31:11;;;;;;;;;;;;;;;;;;4972015;28;5119;-57
2023/02/13 13:33:38;;;;;;;;;;;;;;;;;;5001619;28;5098;-57
2023/02/13 13:36:18;;;;;;;;;;;;;;;;;;5001596;28;4504;-56
2023/02/13 13:38:50;;;;;;;;;;;;;;;;;;4999996;28;5234;-56
2023/02/13 13:41:21;;;;;;;;;;;;;;;;;;5002490;28;3520;-57
2023/02/13 13:43:49;;;;;;;;;;;;;;;;;;5003367;28;4434;-56
2023/02/13 13:46:41;;;;;;;;;;;;;;;;;;4997823;28;4663;-57
2023/02/13 13:49:21;;;;;;;;;;;;;;;;;;4975869;28;5468;-56
2023/02/13 13:51:47;;;;;;;;;;;;;;;;;;4995076;28;5137;-57
2023/02/13 13:54:12;;;;;;;;;;;;;;;;;;4984959;28;5043;-58
2023/02/13 13:57:03;;;;;;;;;;;;;;;;;;4994799;28;5126;-57
2023/02/13 13:59:32;;;;;;;;;;;;;;;;;;4993417;28;5176;-57
2023/02/13 14:02:15;;;;;;;;;;;;;;;;;;4997453;28;3655;-58
2023/02/13 14:04:42;;;;;;;;;;;;;;;;;;4998022;28;4458;-58
2023/02/13 14:07:14;;;;;;;;;;;;;;;;;;4997395;28;5081;-56
2023/02/13 14:09:40;;;;;;;;;;;;;;;;;;5003518;28;5162;-57
2023/02/13 14:12:23;;;;;;;;;;;;;;;;;;5002885;28;5014;-58
2023/02/13 14:14:49;;;;;;;;;;;;;;;;;;5003120;28;4952;-58
2023/02/13 14:17:14;;;;;;;;;;;;;;;;;;4992558;28;3474;-58
2023/02/13 14:19:40;;;;;;;;;;;;;;;;;;5001982;28;4937;-57
2023/02/13 14:22:17;;;;;;;;;;;;;;;;;;5006923;28;4678;-57
2023/02/13 14:24:48;;;;;;;;;;;;;;;;;;4988235;28;5043;-56
2023/02/13 14:27:18;;;;;;;;;;;;;;;;;;5001099;28;5410;-57
2023/02/13 14:29:45;;;;;;;;;;;;;;;;;;4986024;28;5226;-54
2023/02/13 14:32:23;;;;;;;;;;;;;;;;;;4971072;28;3626;-56
2023/02/13 14:34:50;;;;;;;;;;;;;;;;;;4991546;28;4628;-55
2023/02/13 14:37:19;;;;;;;;;;;;;;;;;;4983379;28;5095;-57
2023/02/13 14:40:03;;;;;;;;;;;;;;;;;;4987685;28;4503;-56
2023/02/13 14:42:28;;;;;;;;;;;;;;;;;;4987225;28;4916;-55
2023/02/13 14:44:57;;;;;;;;;;;;;;;;;;4985333;28;5226;-56
2023/02/13 14:47:55;;;;;;;;;;;;;;;;;;4986102;28;5109;-56
2023/02/13 14:50:24;;;;;;;;;;;;;;;;;;4921407;28;3750;-55
2023/02/13 14:52:49;;;;;;;;;;;;;;;;;;4973276;28;4573;-55
2023/02/13 14:55:30;;;;;;;;;;;;;;;;;;4983788;28;4675;-56
2023/02/13 14:58:06;;;;;;;;;;;;;;;;;;4998173;28;5117;-56
2023/02/13 15:00:50;;;;;;;;;;;;;;;;;;4983049;28;5030;-56
2023/02/13 15:03:18;;;;;;;;;;;;;;;;;;4996164;28;5089;-56
2023/02/13 15:05:44;;;;;;;;;;;;;;;;;;5001711;28;4690;-57
2023/02/13 15:08:13;;;;;;;;;;;;;;;;;;5025012;28;3597;-57
2023/02/13 15:10:39;;;;;;;;;;;;;;;;;;5003690;28;5004;-57
2023/02/13 15:13:05;;;;;;;;;;;;;;;;;;5006757;28;4487;-57
2023/02/13 15:15:31;;;;;;;;;;;;;;;;;;5006460;28;5202;-55
2023/02/13 15:17:58;;;;;;;;;;;;;;;;;;5001547;28;5002;-55
2023/02/13 15:20:25;;;;;;;;;;;;;;;;;;4998977;28;5041;-56
2023/02/13 15:22:50;;;;;;;;;;;;;;;;;;5002244;28;3580;-56
2023/02/13 15:25:25;;;;;;;;;;;;;;;;;;4996378;28;5181;-56
2023/02/13 15:27:52;;;;;;;;;;;;;;;;;;4998554;28;4560;-56
2023/02/13 15:30:21;;;;;;;;;;;;;;;;;;4999437;28;4959;-56
2023/02/13 15:32:52;;;;;;;;;;;;;;;;;;4998167;28;5149;-56
2023/02/13 15:35:36;;;;;;;;;;;;;;;;;;4994368;28;3594;-56
2023/02/13 15:38:20;;;;;;;;;;;;;;;;;;4996691;28;5103;-56
2023/02/13 15:40:45;;;;;;;;;;;;;;;;;;5002637;28;4505;-57
2023/02/13 15:43:34;;;;;;;;;;;;;;;;;;5004720;28;4995;-56
2023/02/13 15:46:01;;;;;;;;;;;;;;;;;;4984132;28;5980;-55
2023/02/13 15:48:26;;;;;;;;;;;;;;;;;;4996680;28;4554;-56
2023/02/13 15:50:52;;;;;;;;;;;;;;;;;;5000022;28;5634;-59
2023/02/13 15:53:17;;;;;;;;;;;;;;;;;;4999523;28;3502;-56
2023/02/13 15:55:43;;;;;;;;;;;;;;;;;;4998359;28;4962;-56
2023/02/13 15:58:10;;;;;;;;;;;;;;;;;;4988981;28;5065;-56
2023/02/13 16:00:36;;;;;;;;;;;;;;;;;;4983206;28;4621;-57
2023/02/13 16:03:02;;;;;;;;;;;;;;;;;;5003235;28;4514;-57
2023/02/13 16:05:27;;;;;;;;;;;;;;;;;;4999830;28;4543;-57
2023/02/13 16:07:56;;;;;;;;;;;;;;;;;;5000371;28;3729;-61
2023/02/13 16:10:24;;;;;;;;;;;;;;;;;;5002864;28;4527;-60
2023/02/13 16:12:50;;;;;;;;;;;;;;;;;;4999066;28;4897;-56
2023/02/13 16:15:15;;;;;;;;;;;;;;;;;;4998271;28;4919;-57
2023/02/13 16:17:41;;;;;;;;;;;;;;;;;;4991598;28;5579;-55
2023/02/13 16:20:07;;;;;;;;;;;;;;;;;;4997524;28;3381;-56
2023/02/13 16:22:32;;;;;;;;;;;;;;;;;;4981619;28;5086;-56
2023/02/13 16:25:21;;;;;;;;;;;;;;;;;;4993626;28;4478;-56
2023/02/13 16:27:47;;;;;;;;;;;;;;;;;;4984106;28;5098;-57
2023/02/13 16:30:25;;;;;;;;;;;;;;;;;;4997310;28;5018;-57
2023/02/13 16:32:50;;;;;;;;;;;;;;;;;;4995289;28;4647;-57
2023/02/13 16:35:26;;;;;;;;;;;;;;;;;;4997193;28;3559;-57
2023/02/13 16:37:52;;;;;;;;;;;;;;;;;;4973104;28;5185;-56
2023/02/13 16:40:43;;;;;;;;;;;;;;;;;;4992527;28;4700;-55
2023/02/13 16:43:28;;;;;;;;;;;;;;;;;;4990283;28;5054;-56
2023/02/13 16:45:53;;;;;;;;;;;;;;;;;;4992509;28;4977;-55
2023/02/13 16:48:18;;;;;;;;;;;;;;;;;;4993687;28;5251;-56
2023/02/13 16:50:44;;;;;;;;;;;;;;;;;;4975555;28;5038;-57
2023/02/13 16:53:09;;;;;;;;;;;;;;;;;;4971955;28;3487;-56
2023/02/13 16:55:34;;;;;;;;;;;;;;;;;;4987155;28;4763;-57
2023/02/13 16:58:01;;;;;;;;;;;;;;;;;;4987775;28;4571;-59
2023/02/13 17:00:26;;;;;;;;;;;;;;;;;;4985654;28;5153;-57
2023/02/13 17:02:52;;;;;;;;;;;;;;;;;;4977154;28;4697;-57
2023/02/13 17:05:21;;;;;;;;;;;;;;;;;;4992741;28;4614;-58
2023/02/13 17:07:47;;;;;;;;;;;;;;;;;;4956089;28;5656;-59
2023/02/13 17:10:15;;;;;;;;;;;;;;;;;;5000124;28;4829;-52
2023/02/13 17:12:41;;;;;;;;;;;;;;;;;;5003468;28;5025;-59
2023/02/13 17:15:11;;;;;;;;;;;;;;;;;;4989308;28;4957;-57
2023/02/13 17:17:36;;;;;;;;;;;;;;;;;;5001799;28;4830;-58
2023/02/13 17:20:03;;;;;;;;;;;;;;;;;;5006200;28;3361;-57
2023/02/13 17:22:47;;;;;;;;;;;;;;;;;;5006447;28;5188;-53
2023/02/13 17:25:17;;;;;;;;;;;;;;;;;;5005879;28;4902;-59
2023/02/13 17:27:43;;;;;;;;;;;;;;;;;;5001342;28;4919;-59
2023/02/13 17:30:28;;;;;;;;;;;;;;;;;;4996779;28;5110;-56
2023/02/13 17:33:12;;;;;;;;;;;;;;;;;;4981877;28;5126;-57
2023/02/13 17:35:38;;;;;;;;;;;;;;;;;;5001977;28;5123;-57
2023/02/13 17:38:05;;;;;;;;;;;;;;;;;;5001712;28;3566;-58
2023/02/13 17:40:30;;;;;;;;;;;;;;;;;;4997210;28;5037;-58
2023/02/13 17:42:56;;;;;;;;;;;;;;;;;;5002001;28;5115;-59
2023/02/13 17:45:22;;;;;;;;;;;;;;;;;;5007981;28;5211;-59
2023/02/13 17:47:47;;;;;;;;;;;;;;;;;;4996776;28;4571;-64
2023/02/13 17:50:12;;;;;;;;;;;;;;;;;;5000730;28;3427;-58
2023/02/13 17:52:38;;;;;;;;;;;;;;;;;;5005837;28;4959;-57
2023/02/13 17:55:03;;;;;;;;;;;;;;;;;;5004511;28;5155;-56
2023/02/13 17:57:29;;;;;;;;;;;;;;;;;;5006864;28;5246;-62
2023/02/13 17:59:55;;;;;;;;;;;;;;;;;;5003500;28;5088;-55
2023/02/13 18:02:22;;;;;;;;;;;;;;;;;;4978745;28;3264;-62